Time;durP1;ratioP1;P1;durP2;ratioP2;P2;SDS_P1;SDS_P2;PMS_P1;PMS_P2;Temp;Humidity;BMP_temperature;BMP_pressure;BME280_temperature;BME280_humidity;BME280_pressure;Samples;Min_cycle;Max_cycle;Signal;HPM_P1;HPM_P2
2022/02/27 00:02:12;;;;;;;13.82;7.88;;;3.30;99.90;;;;;;5091513;28;20686;-54
2022/02/27 00:04:40;;;;;;;13.52;7.80;;;3.30;99.90;;;;;;5091540;28;20289;-54
2022/02/27 00:07:07;;;;;;;13.35;6.90;;;3.30;99.90;;;;;;5091447;28;20198;-53
2022/02/27 00:09:34;;;;;;;8.50;6.53;;;3.20;99.90;;;;;;5091383;28;20222;-52
2022/02/27 00:12:00;;;;;;;13.70;7.65;;;3.20;99.90;;;;;;5091735;28;20269;-53
2022/02/27 00:14:27;;;;;;;10.00;6.38;;;3.20;99.90;;;;;;5091563;28;20574;-52
2022/02/27 00:16:54;;;;;;;11.50;7.55;;;3.20;99.90;;;;;;5091353;28;20191;-53
2022/02/27 00:19:21;;;;;;;11.35;7.70;;;3.20;99.90;;;;;;5090787;28;20279;-53
2022/02/27 00:21:49;;;;;;;12.25;6.90;;;3.20;99.90;;;;;;5091273;28;20222;-52
2022/02/27 00:24:15;;;;;;;10.60;6.80;;;3.10;99.90;;;;;;5094660;28;20229;-51
2022/02/27 00:26:43;;;;;;;11.02;7.72;;;3.10;99.90;;;;;;5095559;28;20201;-51
2022/02/27 00:29:09;;;;;;;13.60;8.05;;;3.10;99.90;;;;;;5094951;28;20214;-50
2022/02/27 00:31:36;;;;;;;11.52;7.28;;;;;;;;;;5095139;28;20202;-51
2022/02/27 00:34:03;;;;;;;9.95;6.70;;;3.10;99.90;;;;;;5095271;28;20194;-51
2022/02/27 00:36:49;;;;;;;20.52;7.72;;;3.10;99.90;;;;;;5095116;28;20203;-51
2022/02/27 00:39:18;;;;;;;9.95;6.30;;;3.10;99.90;;;;;;5076520;28;20566;-50
2022/02/27 00:41:44;;;;;;;16.00;6.32;;;3.10;99.90;;;;;;5074986;28;20265;-51
2022/02/27 00:44:11;;;;;;;13.20;7.13;;;3.00;99.90;;;;;;5093039;28;20218;-51
2022/02/27 00:46:38;;;;;;;14.13;6.38;;;;;;;;;;5094843;28;20198;-51
2022/02/27 00:49:05;;;;;;;12.05;6.20;;;3.10;99.90;;;;;;5094427;28;20218;-51
2022/02/27 00:51:32;;;;;;;10.38;6.55;;;3.10;99.90;;;;;;5095066;28;20678;-50
2022/02/27 00:54:02;;;;;;;11.82;6.40;;;3.10;99.90;;;;;;5095045;28;20183;-51
2022/02/27 00:56:30;;;;;;;12.75;7.82;;;3.10;99.90;;;;;;5095158;28;20198;-51
2022/02/27 00:58:56;;;;;;;15.18;6.53;;;3.10;99.90;;;;;;5094321;28;20630;-51
2022/02/27 01:01:23;;;;;;;10.95;6.80;;;;;;;;;;5075860;28;20244;-51
2022/02/27 01:03:52;;;;;;;12.40;6.55;;;;;;;;;;5094302;28;20215;-51
2022/02/27 01:06:19;;;;;;;16.73;6.47;;;3.10;99.90;;;;;;5094696;28;20259;-50
2022/02/27 01:08:46;;;;;;;11.85;6.95;;;3.00;99.90;;;;;;5094359;28;20616;-51
2022/02/27 01:11:13;;;;;;;10.82;6.80;;;3.00;99.90;;;;;;5095074;28;20199;-51
2022/02/27 01:13:41;;;;;;;11.48;6.93;;;3.00;99.90;;;;;;5094664;28;20202;-51
2022/02/27 01:16:09;;;;;;;12.13;7.68;;;3.00;99.90;;;;;;5094538;28;20731;-52
2022/02/27 01:18:36;;;;;;;15.20;8.00;;;2.90;99.90;;;;;;5093977;28;20271;-51
2022/02/27 01:21:03;;;;;;;13.43;7.63;;;2.90;99.90;;;;;;5076209;28;20238;-51
2022/02/27 01:23:30;;;;;;;11.57;7.47;;;2.80;99.90;;;;;;5094405;28;20203;-51
2022/02/27 01:25:56;;;;;;;11.07;8.50;;;2.80;99.90;;;;;;5094398;28;20194;-51
2022/02/27 01:28:30;;;;;;;14.68;9.48;;;2.80;99.90;;;;;;5093919;28;20199;-51
2022/02/27 01:30:58;;;;;;;18.30;9.27;;;2.80;99.90;;;;;;5076180;28;20213;-52
2022/02/27 01:33:25;;;;;;;16.05;10.85;;;2.70;99.90;;;;;;5075676;28;20207;-51
2022/02/27 01:35:52;;;;;;;16.38;8.82;;;2.70;99.90;;;;;;5075074;28;20285;-51
2022/02/27 01:38:19;;;;;;;11.45;8.50;;;2.70;99.90;;;;;;5075752;28;20205;-50
2022/02/27 01:40:45;;;;;;;12.80;9.48;;;2.70;99.90;;;;;;5075260;28;20671;-52
2022/02/27 01:43:12;;;;;;;14.57;10.05;;;2.70;99.90;;;;;;5094221;28;20213;-50
2022/02/27 01:48:49;;;;;;;14.85;9.45;;;2.60;99.90;;;;;;5093679;28;20217;-51
2022/02/27 01:51:16;;;;;;;17.67;10.60;;;2.50;99.90;;;;;;5093914;28;20203;-50
2022/02/27 01:53:45;;;;;;;14.70;10.10;;;2.50;99.90;;;;;;5075681;28;20199;-51
2022/02/27 01:56:13;;;;;;;19.50;10.40;;;2.50;99.90;;;;;;5094193;28;20203;-51
2022/02/27 01:58:39;;;;;;;14.70;10.07;;;2.50;99.90;;;;;;5075456;28;20573;-49
2022/02/27 02:01:06;;;;;;;20.35;10.18;;;2.50;99.90;;;;;;5075689;28;20260;-50
2022/02/27 02:03:33;;;;;;;16.15;10.85;;;2.50;99.90;;;;;;5075626;28;20198;-49
2022/02/27 02:06:03;;;;;;;14.38;9.43;;;2.50;99.90;;;;;;5093707;28;20309;-51
2022/02/27 02:08:30;;;;;;;13.82;10.15;;;2.50;99.90;;;;;;5093070;28;20199;-51
2022/02/27 02:10:59;;;;;;;15.35;11.02;;;2.40;99.90;;;;;;5093663;28;20226;-51
2022/02/27 02:13:26;;;;;;;14.80;10.48;;;2.40;99.90;;;;;;5093392;28;20206;-51
2022/02/27 02:15:57;;;;;;;15.63;9.18;;;2.40;99.90;;;;;;5075237;28;20191;-51
2022/02/27 02:18:30;;;;;;;13.45;10.50;;;2.40;99.90;;;;;;5074597;28;20194;-50
2022/02/27 02:20:58;;;;;;;16.33;11.85;;;2.30;99.90;;;;;;5075260;28;20667;-51
2022/02/27 02:23:25;;;;;;;13.88;10.57;;;;;;;;;;5074952;28;20202;-50
2022/02/27 02:25:53;;;;;;;18.65;12.20;;;2.30;99.90;;;;;;5075136;28;20245;-50
2022/02/27 02:28:21;;;;;;;15.77;11.70;;;;;;;;;;5093012;28;20225;-51
2022/02/27 02:30:49;;;;;;;17.33;13.07;;;;;;;;;;5074527;28;20210;-50
2022/02/27 02:33:16;;;;;;;15.43;12.23;;;;;;;;;;5074864;28;20206;-50
2022/02/27 02:35:45;;;;;;;18.65;11.95;;;;;;;;;;5074779;28;20194;-50
2022/02/27 02:38:13;;;;;;;18.58;11.80;;;2.40;99.90;;;;;;5074659;28;20812;-50
2022/02/27 02:40:39;;;;;;;17.73;12.45;;;2.50;99.90;;;;;;5074269;28;20616;-51
2022/02/27 02:43:07;;;;;;;14.18;11.48;;;;;;;;;;5071420;28;20200;-51
2022/02/27 02:45:47;;;;;;;15.18;10.63;;;;;;;;;;5054226;28;20306;-52
2022/02/27 02:48:24;;;;;;;16.42;11.13;;;2.10;99.90;;;;;;5071116;28;20211;-51
2022/02/27 02:51:05;;;;;;;14.93;11.38;;;2.30;99.90;;;;;;5054520;28;20253;-51
2022/02/27 02:53:37;;;;;;;15.88;11.52;;;;;;;;;;5054662;28;20556;-50
2022/02/27 02:56:07;;;;;;;21.90;11.38;;;2.00;99.90;;;;;;5054542;28;20201;-50
2022/02/27 02:58:35;;;;;;;37.13;15.07;;;2.10;99.90;;;;;;5071950;28;20226;-51
2022/02/27 03:01:03;;;;;;;88.15;29.05;;;2.10;99.90;;;;;;5072444;28;20188;-50
2022/02/27 03:03:30;;;;;;;158.77;49.90;;;2.20;99.90;;;;;;5072328;28;20663;-51
2022/02/27 03:05:57;;;;;;;186.38;59.88;;;2.00;99.90;;;;;;5072038;28;20219;-51
2022/02/27 03:08:24;;;;;;;140.23;47.22;;;2.00;99.90;;;;;;5071767;28;20253;-51
2022/02/27 03:10:52;;;;;;;91.22;34.75;;;2.10;99.90;;;;;;5072086;28;20199;-51
2022/02/27 03:13:18;;;;;;;56.90;27.08;;;2.20;99.90;;;;;;5072123;28;20206;-51
2022/02/27 03:15:45;;;;;;;40.30;21.13;;;2.20;99.90;;;;;;5072075;28;20373;-50
2022/02/27 03:18:11;;;;;;;43.97;22.55;;;2.00;99.90;;;;;;5071893;28;20545;-51
2022/02/27 03:20:38;;;;;;;44.60;19.65;;;2.10;99.90;;;;;;5071560;28;20199;-51
2022/02/27 03:23:05;;;;;;;36.47;18.17;;;2.10;99.90;;;;;;5071780;28;20206;-50
2022/02/27 03:25:31;;;;;;;30.25;17.60;;;2.00;99.90;;;;;;5071952;28;20222;-50
2022/02/27 03:27:59;;;;;;;28.25;16.88;;;1.90;99.90;;;;;;5071896;28;20588;-49
2022/02/27 03:30:26;;;;;;;28.50;16.27;;;;;;;;;;5071317;28;20232;-50
2022/02/27 03:32:53;;;;;;;36.63;17.10;;;;;;;;;;5071555;28;20556;-51
2022/02/27 03:35:21;;;;;;;28.63;14.15;;;2.00;99.90;;;;;;5071456;28;20195;-50
2022/02/27 03:37:50;;;;;;;27.42;15.25;;;2.00;99.90;;;;;;5071842;28;20202;-50
2022/02/27 03:40:17;;;;;;;25.42;14.38;;;1.90;99.90;;;;;;5079254;28;20225;-52
2022/02/27 03:42:44;;;;;;;37.17;17.52;;;1.90;99.90;;;;;;5091756;28;20206;-51
2022/02/27 03:45:12;;;;;;;24.25;14.57;;;;;;;;;;5092100;28;20219;-51
2022/02/27 03:47:40;;;;;;;20.85;14.48;;;2.00;99.90;;;;;;5091830;28;20681;-51
2022/02/27 03:50:08;;;;;;;20.92;14.00;;;1.90;99.90;;;;;;5091273;28;20244;-50
2022/02/27 03:52:35;;;;;;;29.77;13.75;;;1.70;99.90;;;;;;5091645;28;20195;-51
2022/02/27 03:55:02;;;;;;;23.42;13.27;;;2.00;99.90;;;;;;5091776;28;20249;-50
2022/02/27 03:57:29;;;;;;;24.00;14.30;;;2.00;99.90;;;;;;5091225;28;20190;-50
2022/02/27 03:59:55;;;;;;;22.05;14.00;;;1.70;99.90;;;;;;5091240;28;20293;-50
2022/02/27 04:02:23;;;;;;;24.02;14.85;;;1.70;99.90;;;;;;5091756;28;20206;-51
2022/02/27 04:05:07;;;;;;;20.27;12.50;;;2.00;99.90;;;;;;5091424;28;20233;-51
2022/02/27 04:07:34;;;;;;;21.30;13.02;;;1.70;99.90;;;;;;5087177;28;20297;-50
2022/02/27 04:10:00;;;;;;;17.90;12.90;;;2.00;99.90;;;;;;5091536;28;20587;-50
2022/02/27 04:12:48;;;;;;;22.23;13.80;;;1.80;99.90;;;;;;5091651;28;20195;-51
2022/02/27 04:15:14;;;;;;;25.23;12.98;;;1.60;99.90;;;;;;5091720;28;20191;-51
2022/02/27 04:17:42;;;;;;;19.75;11.60;;;1.70;99.90;;;;;;5091955;28;20567;-50
2022/02/27 04:20:10;;;;;;;19.15;12.68;;;;;;;;;;5091458;28;20250;-50
2022/02/27 04:22:54;;;;;;;23.27;11.80;;;1.80;99.90;;;;;;5092003;28;20191;-53
2022/02/27 04:25:21;;;;;;;18.02;12.40;;;;;;;;;;5091556;28;20213;-52
2022/02/27 04:27:48;;;;;;;19.60;11.27;;;;;;;;;;5091422;28;20194;-51
2022/02/27 04:30:15;;;;;;;22.95;11.82;;;1.60;99.90;;;;;;5091082;28;20245;-51
2022/02/27 04:32:43;;;;;;;23.00;12.65;;;;;;;;;;5091466;28;20553;-50
2022/02/27 04:35:10;;;;;;;19.10;12.80;;;1.60;99.90;;;;;;5091385;28;20198;-49
2022/02/27 04:37:37;;;;;;;20.80;13.05;;;1.60;99.90;;;;;;5091419;28;20211;-51
2022/02/27 04:40:05;;;;;;;17.08;11.07;;;1.80;99.90;;;;;;5090697;28;20235;-51
2022/02/27 04:42:32;;;;;;;19.95;12.20;;;1.60;99.90;;;;;;5091115;28;20207;-50
2022/02/27 04:44:58;;;;;;;21.30;12.15;;;1.80;99.90;;;;;;5091169;28;20221;-51
2022/02/27 04:47:25;;;;;;;17.83;10.30;;;1.60;99.90;;;;;;5091144;28;20191;-50
2022/02/27 04:49:53;;;;;;;18.77;11.68;;;1.80;99.90;;;;;;5090820;28;20214;-50
2022/02/27 04:52:21;;;;;;;20.00;12.18;;;1.40;99.90;;;;;;5091259;28;20225;-50
2022/02/27 04:54:51;;;;;;;25.73;13.65;;;;;;;;;;5091540;28;20197;-50
2022/02/27 04:57:18;;;;;;;21.20;12.77;;;1.80;99.90;;;;;;5091120;28;20197;-51
2022/02/27 04:59:44;;;;;;;31.20;14.15;;;1.70;99.90;;;;;;5091191;28;20227;-50
2022/02/27 05:02:11;;;;;;;26.35;15.90;;;1.80;99.90;;;;;;5091252;28;20202;-51
2022/02/27 05:04:38;;;;;;;19.65;11.95;;;1.50;99.90;;;;;;5091141;28;20205;-52
2022/02/27 05:07:06;;;;;;;21.50;12.93;;;1.40;99.90;;;;;;5091156;28;20311;-51
2022/02/27 05:09:33;;;;;;;24.38;11.80;;;1.60;99.90;;;;;;5091118;28;20214;-51
2022/02/27 05:12:00;;;;;;;17.65;12.43;;;1.60;99.90;;;;;;5076831;28;20533;-51
2022/02/27 05:14:27;;;;;;;16.10;11.73;;;1.40;99.90;;;;;;5094730;28;20198;-51
2022/02/27 05:16:54;;;;;;;14.20;10.13;;;;;;;;;;5094745;28;20191;-51
2022/02/27 05:19:20;;;;;;;15.18;9.88;;;1.60;99.90;;;;;;5094053;28;20398;-51
2022/02/27 05:21:47;;;;;;;13.68;9.50;;;1.30;99.90;;;;;;5094494;28;20206;-51
2022/02/27 05:24:15;;;;;;;18.45;9.50;;;1.40;99.90;;;;;;5094659;28;20202;-51
2022/02/27 05:26:41;;;;;;;14.50;9.95;;;1.40;99.90;;;;;;5094483;28;20222;-51
2022/02/27 05:29:08;;;;;;;13.82;10.27;;;1.30;99.90;;;;;;5094087;28;20214;-50
2022/02/27 05:31:34;;;;;;;12.73;9.18;;;1.70;99.90;;;;;;5094344;28;20207;-51
2022/02/27 05:34:01;;;;;;;15.40;10.15;;;1.20;99.90;;;;;;5094540;28;20221;-50
2022/02/27 05:36:31;;;;;;;16.95;10.27;;;1.40;99.90;;;;;;5094152;28;20198;-51
2022/02/27 05:38:58;;;;;;;13.07;9.80;;;1.40;99.90;;;;;;5093711;28;20215;-52
2022/02/27 05:41:26;;;;;;;28.17;10.75;;;1.40;99.90;;;;;;5094012;28;20218;-50
2022/02/27 05:43:53;;;;;;;13.93;10.35;;;1.40;99.90;;;;;;5094085;28;20215;-50
2022/02/27 05:46:19;;;;;;;15.07;8.48;;;;;;;;;;5094186;28;20215;-51
2022/02/27 05:48:46;;;;;;;18.77;10.25;;;1.60;99.90;;;;;;5094106;28;20223;-50
2022/02/27 05:51:13;;;;;;;12.20;9.25;;;1.40;99.90;;;;;;5094233;28;20209;-50
2022/02/27 05:53:39;;;;;;;19.55;10.68;;;1.40;99.90;;;;;;5093872;28;20662;-50
2022/02/27 05:56:06;;;;;;;12.38;8.82;;;1.30;99.90;;;;;;5093941;28;20192;-50
2022/02/27 05:58:36;;;;;;;17.33;11.43;;;;;;;;;;5093273;28;20222;-50
2022/02/27 06:01:03;;;;;;;12.82;9.02;;;1.30;99.90;;;;;;5093922;28;20208;-49
2022/02/27 06:03:30;;;;;;;19.40;11.52;;;1.50;99.90;;;;;;5093916;28;20449;-49
2022/02/27 06:05:56;;;;;;;21.77;10.60;;;1.20;99.90;;;;;;5093535;28;20720;-51
2022/02/27 06:08:23;;;;;;;17.55;10.75;;;;;;;;;;5093530;28;20297;-51
2022/02/27 06:10:50;;;;;;;13.93;9.50;;;;;;;;;;5093485;28;20198;-50
2022/02/27 06:13:17;;;;;;;18.80;10.98;;;1.10;99.90;;;;;;5093701;28;20206;-51
2022/02/27 06:15:45;;;;;;;19.48;11.60;;;;;;;;;;5093421;28;20190;-51
2022/02/27 06:18:12;;;;;;;18.23;9.98;;;1.30;99.90;;;;;;5093160;28;20198;-51
2022/02/27 06:20:38;;;;;;;11.50;8.88;;;1.50;99.90;;;;;;5092815;28;20206;-51
2022/02/27 06:23:06;;;;;;;14.45;9.05;;;1.60;99.90;;;;;;5093269;28;20202;-52
2022/02/27 06:25:32;;;;;;;13.75;9.98;;;1.50;99.90;;;;;;5093439;28;20218;-51
2022/02/27 06:27:59;;;;;;;19.02;9.90;;;1.30;99.90;;;;;;5093263;28;20202;-53
2022/02/27 06:30:27;;;;;;;17.23;9.38;;;1.50;99.90;;;;;;5092699;28;20321;-51
2022/02/27 06:32:55;;;;;;;13.60;9.75;;;1.40;99.90;;;;;;5093177;28;20251;-51
2022/02/27 06:35:25;;;;;;;18.45;9.88;;;;;;;;;;5093072;28;20195;-51
2022/02/27 06:37:52;;;;;;;17.88;10.85;;;1.60;99.90;;;;;;5093323;28;20559;-51
2022/02/27 06:40:20;;;;;;;17.08;9.57;;;1.40;99.90;;;;;;5092522;28;20241;-52
2022/02/27 06:42:47;;;;;;;17.70;10.43;;;1.60;99.90;;;;;;5092927;28;20198;-51
2022/02/27 06:45:15;;;;;;;13.88;10.63;;;1.70;99.90;;;;;;5074511;28;20579;-51
2022/02/27 06:47:42;;;;;;;14.20;9.82;;;1.90;99.90;;;;;;5092960;28;20198;-51
2022/02/27 06:50:11;;;;;;;20.15;10.23;;;;;;;;;;5092569;28;20243;-51
2022/02/27 06:52:38;;;;;;;14.73;10.30;;;;;;;;;;5092900;28;20201;-52
2022/02/27 06:55:05;;;;;;;14.70;9.50;;;;;;;;;;5092708;28;20213;-51
2022/02/27 06:57:32;;;;;;;12.65;9.95;;;;;;;;;;5092761;28;20187;-51
2022/02/27 06:59:59;;;;;;;18.55;10.73;;;;;;;;;;5092211;28;20229;-51
2022/02/27 07:02:26;;;;;;;16.05;10.38;;;2.10;99.90;;;;;;5092615;28;20205;-52
2022/02/27 07:04:53;;;;;;;17.10;10.48;;;2.10;99.90;;;;;;5092654;28;20259;-52
2022/02/27 07:07:20;;;;;;;19.35;10.15;;;1.80;99.90;;;;;;5092696;28;20227;-52
2022/02/27 07:09:47;;;;;;;14.30;10.10;;;2.20;99.90;;;;;;5092077;28;20740;-51
2022/02/27 07:12:20;;;;;;;18.05;10.40;;;2.20;99.90;;;;;;5092680;28;20194;-53
2022/02/27 07:14:47;;;;;;;18.70;10.05;;;2.10;99.90;;;;;;5092490;28;20198;-51
2022/02/27 07:17:13;;;;;;;12.20;9.02;;;2.00;99.90;;;;;;5092395;28;20659;-52
2022/02/27 07:19:40;;;;;;;13.05;9.88;;;2.00;99.90;;;;;;5091853;28;20233;-52
2022/02/27 07:22:07;;;;;;;15.75;9.85;;;2.10;99.90;;;;;;5092279;28;20241;-53
2022/02/27 07:24:35;;;;;;;21.83;11.15;;;2.10;99.90;;;;;;5092503;28;20769;-51
2022/02/27 07:27:01;;;;;;;16.73;10.00;;;2.10;99.90;;;;;;5092280;28;20233;-52
2022/02/27 07:29:28;;;;;;;13.10;9.07;;;;;;;;;;5091826;28;20891;-52
2022/02/27 07:31:55;;;;;;;16.63;8.85;;;2.20;99.90;;;;;;5091962;28;20559;-51
2022/02/27 07:34:22;;;;;;;18.00;8.85;;;;;;;;;;5073502;28;20214;-51
2022/02/27 07:36:51;;;;;;;15.60;10.15;;;;;;;;;;5092386;28;20214;-51
2022/02/27 07:39:18;;;;;;;16.77;8.80;;;;;;;;;;5092177;28;20289;-50
2022/02/27 07:41:46;;;;;;;17.40;9.65;;;2.30;99.90;;;;;;5072288;28;20203;-51
2022/02/27 07:44:15;;;;;;;14.68;9.60;;;2.40;99.90;;;;;;5068967;28;20207;-51
2022/02/27 07:46:42;;;;;;;20.00;9.55;;;2.30;99.90;;;;;;5072149;28;20218;-50
2022/02/27 07:49:09;;;;;;;23.15;9.80;;;;;;;;;;5071728;28;20700;-49
2022/02/27 07:51:36;;;;;;;14.70;9.38;;;;;;;;;;5072038;28;20297;-50
2022/02/27 07:54:03;;;;;;;16.92;8.65;;;2.50;99.90;;;;;;5071915;28;20198;-51
2022/02/27 07:56:30;;;;;;;12.05;10.00;;;2.60;99.90;;;;;;5072310;28;20188;-51
2022/02/27 07:58:58;;;;;;;13.73;8.82;;;2.40;99.90;;;;;;5071449;28;20229;-50
2022/02/27 08:01:25;;;;;;;13.70;9.10;;;2.80;99.90;;;;;;5071883;28;20199;-50
2022/02/27 08:03:51;;;;;;;12.00;8.77;;;2.80;99.90;;;;;;5072029;28;20191;-51
2022/02/27 08:06:18;;;;;;;14.68;9.30;;;2.50;99.90;;;;;;5071466;28;20215;-51
2022/02/27 08:08:45;;;;;;;14.23;9.60;;;;;;;;;;5071056;28;20211;-51
2022/02/27 08:11:12;;;;;;;14.85;9.93;;;2.70;99.90;;;;;;5071802;28;20234;-51
2022/02/27 08:13:39;;;;;;;20.52;9.10;;;2.60;99.90;;;;;;5072896;28;20199;-50
2022/02/27 08:16:07;;;;;;;14.18;10.10;;;2.90;99.90;;;;;;5072251;28;20196;-50
2022/02/27 08:18:35;;;;;;;14.70;9.52;;;2.60;99.90;;;;;;5071252;28;20219;-51
2022/02/27 08:21:02;;;;;;;17.38;10.90;;;;;;;;;;5071647;28;20207;-50
2022/02/27 08:23:28;;;;;;;13.57;9.85;;;2.80;99.90;;;;;;5071799;28;20362;-50
2022/02/27 08:25:59;;;;;;;14.05;9.27;;;3.00;99.90;;;;;;5071477;28;20202;-50
2022/02/27 08:28:26;;;;;;;20.85;10.45;;;;;;;;;;5070993;28;20550;-53
2022/02/27 08:30:53;;;;;;;18.13;12.45;;;;;;;;;;5071470;28;20199;-52
2022/02/27 08:33:22;;;;;;;19.70;12.43;;;3.10;99.90;;;;;;5071061;28;20202;-49
2022/02/27 08:35:49;;;;;;;18.63;12.30;;;;;;;;;;5071063;28;20270;-51
2022/02/27 08:38:16;;;;;;;22.60;13.68;;;;;;;;;;5071121;28;20273;-51
2022/02/27 08:40:42;;;;;;;28.38;14.82;;;3.20;99.90;;;;;;5082076;28;20667;-51
2022/02/27 08:43:09;;;;;;;27.05;16.75;;;3.30;99.90;;;;;;5091023;28;20217;-51
2022/02/27 08:45:37;;;;;;;29.13;16.67;;;3.10;99.90;;;;;;5093153;28;20286;-50
2022/02/27 08:48:04;;;;;;;24.15;17.50;;;3.20;99.90;;;;;;5094757;28;20207;-51
2022/02/27 08:50:32;;;;;;;27.65;16.40;;;3.50;99.90;;;;;;5076422;28;20226;-51
2022/02/27 08:52:59;;;;;;;32.60;18.20;;;3.30;99.90;;;;;;5095039;28;20207;-50
2022/02/27 08:55:26;;;;;;;35.15;18.65;;;3.40;99.90;;;;;;5094864;28;20194;-51
2022/02/27 08:57:53;;;;;;;34.15;19.73;;;3.80;99.90;;;;;;5094883;28;20199;-51
2022/02/27 09:00:20;;;;;;;33.15;18.48;;;;;;;;;;5094282;28;20264;-51
2022/02/27 09:02:47;;;;;;;34.00;18.23;;;3.70;99.90;;;;;;5094727;28;20256;-50
2022/02/27 09:05:23;;;;;;;25.67;16.73;;;4.10;99.90;;;;;;5094507;28;20190;-52
2022/02/27 09:07:51;;;;;;;29.25;19.00;;;;;;;;;;5089854;28;20302;-52
2022/02/27 09:10:17;;;;;;;32.53;18.85;;;4.00;99.90;;;;;;5083224;28;20266;-51
2022/02/27 09:12:45;;;;;;;30.48;18.20;;;4.10;99.90;;;;;;5074165;28;20199;-51
2022/02/27 09:15:16;;;;;;;28.98;17.90;;;4.40;99.90;;;;;;5074195;28;20191;-52
2022/02/27 09:17:43;;;;;;;31.90;20.17;;;4.10;99.90;;;;;;5055897;28;20648;-52
2022/02/27 09:20:10;;;;;;;29.48;18.65;;;4.10;99.90;;;;;;5073775;28;20222;-53
2022/02/27 09:22:37;;;;;;;28.50;18.60;;;4.40;99.90;;;;;;5074355;28;20608;-51
2022/02/27 09:25:07;;;;;;;32.15;19.00;;;4.20;99.90;;;;;;5074029;28;20558;-51
2022/02/27 09:27:34;;;;;;;29.45;18.55;;;4.30;99.90;;;;;;5073645;28;20688;-51
2022/02/27 09:30:01;;;;;;;33.38;18.70;;;;;;;;;;5073440;28;20219;-51
2022/02/27 09:32:28;;;;;;;32.90;19.48;;;4.60;99.90;;;;;;5073733;28;20660;-51
2022/02/27 09:34:54;;;;;;;30.75;19.55;;;4.60;99.90;;;;;;5073884;28;20270;-51
2022/02/27 09:37:21;;;;;;;28.27;17.98;;;;;;;;;;5073781;28;20192;-52
2022/02/27 09:39:49;;;;;;;26.75;17.23;;;;;;;;;;5077031;28;20215;-51
2022/02/27 09:42:17;;;;;;;30.73;18.15;;;4.90;99.90;;;;;;5093852;28;20204;-52
2022/02/27 09:44:44;;;;;;;30.48;18.23;;;;;;;;;;5093921;28;20187;-51
2022/02/27 09:47:12;;;;;;;28.38;19.55;;;;;;;;;;5093610;28;20249;-51
2022/02/27 09:49:42;;;;;;;26.02;18.50;;;4.80;99.90;;;;;;5093266;28;20225;-52
2022/02/27 09:52:09;;;;;;;32.22;19.52;;;5.00;99.90;;;;;;5093673;28;20199;-51
2022/02/27 09:54:36;;;;;;;27.92;19.35;;;;;;;;;;5094063;28;20206;-52
2022/02/27 09:57:03;;;;;;;26.65;18.02;;;5.40;99.90;;;;;;5093198;28;20202;-52
2022/02/27 09:59:31;;;;;;;28.45;18.25;;;5.40;99.90;;;;;;5093190;28;20241;-52
2022/02/27 10:02:00;;;;;;;26.95;19.27;;;5.30;99.90;;;;;;5093638;28;20198;-51
2022/02/27 10:04:27;;;;;;;28.50;17.25;;;;;;;;;;5093472;28;20194;-53
2022/02/27 10:06:54;;;;;;;26.85;18.65;;;;;;;;;;5093128;28;20252;-52
2022/02/27 10:09:25;;;;;;;29.25;19.38;;;5.50;99.90;;;;;;5092911;28;20601;-52
2022/02/27 10:12:14;;;;;;;29.03;18.97;;;5.60;99.90;;;;;;5093112;28;20204;-52
2022/02/27 10:14:57;;;;;;;24.42;17.73;;;5.60;99.90;;;;;;5093890;28;20395;-51
2022/02/27 10:17:29;;;;;;;24.65;17.75;;;5.80;99.90;;;;;;5093768;28;20198;-50
2022/02/27 10:19:56;;;;;;;25.30;17.10;;;5.70;99.90;;;;;;5092570;28;20219;-50
2022/02/27 10:22:39;;;;;;;25.35;18.15;;;5.90;99.90;;;;;;5093191;28;20444;-51
2022/02/27 10:25:11;;;;;;;26.00;17.73;;;5.80;99.90;;;;;;5093376;28;20575;-50
2022/02/27 10:28:20;;;;;;;26.08;18.73;;;6.00;99.90;;;;;;5093668;28;20470;-51
2022/02/27 10:30:51;;;;;;;27.07;18.07;;;;;;;;;;5092905;28;20573;-50
2022/02/27 10:33:17;;;;;;;28.92;18.85;;;6.00;99.90;;;;;;5092937;28;20540;-51
2022/02/27 10:35:45;;;;;;;28.35;18.10;;;;;;;;;;5092994;28;20686;-51
2022/02/27 10:38:13;;;;;;;27.80;20.30;;;;;;;;;;5093146;28;20545;-51
2022/02/27 10:40:43;;;;;;;25.80;19.07;;;5.90;99.90;;;;;;5092131;28;20416;-51
2022/02/27 10:43:11;;;;;;;25.60;17.77;;;;;;;;;;5092586;28;20455;-51
2022/02/27 10:45:39;;;;;;;31.08;19.88;;;6.40;99.90;;;;;;5092824;28;20433;-52
2022/02/27 10:48:09;;;;;;;31.55;21.42;;;6.20;99.90;;;;;;5092784;28;20656;-51
2022/02/27 10:50:36;;;;;;;24.87;19.03;;;6.40;99.90;;;;;;5092288;28;20215;-52
2022/02/27 10:53:04;;;;;;;34.03;21.47;;;;;;;;;;5092041;28;20515;-52
2022/02/27 10:55:34;;;;;;;26.75;20.13;;;6.10;99.90;;;;;;5092744;28;20855;-52
2022/02/27 10:58:01;;;;;;;31.83;20.75;;;6.10;99.90;;;;;;5092458;28;20194;-51
2022/02/27 11:00:30;;;;;;;30.43;20.83;;;;;;;;;;5092209;28;20271;-50
2022/02/27 11:02:59;;;;;;;32.30;21.20;;;6.00;99.90;;;;;;5073962;28;20458;-50
2022/02/27 11:05:29;;;;;;;33.47;21.93;;;;;;;;;;5092208;28;20892;-52
2022/02/27 11:07:58;;;;;;;31.98;23.55;;;5.90;99.90;;;;;;5091345;28;20572;-51
2022/02/27 11:10:27;;;;;;;35.97;23.70;;;6.10;99.90;;;;;;5091682;28;20225;-51
2022/02/27 11:12:54;;;;;;;35.77;22.17;;;;;;;;;;5091747;28;20274;-51
2022/02/27 11:15:24;;;;;;;32.40;20.95;;;6.00;99.90;;;;;;5092095;28;20433;-52
2022/02/27 11:17:51;;;;;;;30.15;21.52;;;6.10;99.90;;;;;;5073282;28;20222;-50
2022/02/27 11:20:20;;;;;;;34.38;23.67;;;;;;;;;;5091479;28;20579;-51
2022/02/27 11:22:49;;;;;;;37.05;23.52;;;6.00;99.90;;;;;;5091738;28;20667;-51
2022/02/27 11:25:16;;;;;;;33.90;20.75;;;;;;;;;;5091699;28;20233;-51
2022/02/27 11:27:45;;;;;;;29.40;19.17;;;;;;;;;;5091385;28;20212;-52
2022/02/27 11:30:13;;;;;;;31.87;20.30;;;6.40;99.90;;;;;;5091540;28;20294;-50
2022/02/27 11:32:47;;;;;;;29.27;19.90;;;6.00;99.90;;;;;;5091399;28;20441;-51
2022/02/27 11:35:35;;;;;;;33.50;20.40;;;6.40;99.90;;;;;;5091968;28;20422;-51
2022/02/27 11:38:05;;;;;;;29.58;20.63;;;6.30;99.90;;;;;;5091513;28;20491;-51
2022/02/27 11:40:57;;;;;;;31.05;19.88;;;6.60;99.90;;;;;;5090861;28;20249;-52
2022/02/27 11:43:43;;;;;;;24.07;17.00;;;6.60;99.90;;;;;;5089787;28;20246;-52
2022/02/27 11:46:40;;;;;;;23.13;17.83;;;6.60;99.90;;;;;;5091774;28;20403;-53
2022/02/27 11:49:07;;;;;;;25.42;17.30;;;;;;;;;;5072808;28;20865;-51
2022/02/27 11:51:49;;;;;;;25.33;18.23;;;6.50;99.90;;;;;;5090918;28;20191;-52
2022/02/27 11:54:18;;;;;;;27.20;18.40;;;;;;;;;;5091504;28;20199;-52
2022/02/27 11:56:47;;;;;;;32.60;19.30;;;6.40;99.90;;;;;;5091034;28;20447;-50
2022/02/27 11:59:15;;;;;;;30.10;18.33;;;6.40;99.90;;;;;;5091106;28;21003;-50
2022/02/27 12:01:58;;;;;;;27.43;18.43;;;6.60;99.90;;;;;;5091281;28;20412;-50
2022/02/27 12:04:26;;;;;;;33.43;19.20;;;6.80;99.90;;;;;;5091411;28;20407;-52
2022/02/27 12:07:02;;;;;;;25.20;18.20;;;6.80;99.90;;;;;;5091084;28;20459;-51
2022/02/27 12:09:54;;;;;;;27.23;18.50;;;;;;;;;;5090579;28;20854;-53
2022/02/27 12:12:40;;;;;;;27.57;19.17;;;;;;;;;;5091118;28;20465;-51
2022/02/27 12:15:17;;;;;;;25.73;18.67;;;6.90;99.90;;;;;;5091226;28;20418;-51
2022/02/27 12:17:55;;;;;;;32.10;19.80;;;6.70;99.90;;;;;;5091424;28;20416;-52
2022/02/27 12:20:41;;;;;;;28.43;19.20;;;6.80;99.90;;;;;;5093826;28;20452;-52
2022/02/27 12:23:11;;;;;;;33.03;19.87;;;6.80;99.90;;;;;;5095413;28;20444;-52
2022/02/27 12:25:41;;;;;;;30.20;20.20;;;;;;;;;;5094844;28;20445;-51
2022/02/27 12:28:08;;;;;;;25.80;19.23;;;7.20;99.90;;;;;;5094913;28;20475;-52
2022/02/27 12:30:35;;;;;;;31.73;19.17;;;;;;;;;;5095064;28;20490;-51
2022/02/27 12:33:07;;;;;;;30.10;18.43;;;6.80;99.90;;;;;;5094823;28;20842;-51
2022/02/27 12:35:35;;;;;;;29.20;18.07;;;6.70;99.90;;;;;;5095299;28;20498;-53
2022/02/27 12:38:06;;;;;;;28.80;18.80;;;6.60;99.90;;;;;;5095616;28;20407;-52
2022/02/27 12:40:34;;;;;;;28.23;19.47;;;6.70;99.90;;;;;;5095145;28;20887;-53
2022/02/27 12:43:03;;;;;;;28.40;18.80;;;;;;;;;;5073472;28;20516;-51
2022/02/27 12:45:33;;;;;;;29.90;19.03;;;6.60;99.90;;;;;;5074908;28;20919;-52
2022/02/27 12:48:10;;;;;;;25.83;18.03;;;6.60;99.90;;;;;;5075047;28;20518;-52
2022/02/27 12:50:44;;;;;;;24.30;18.00;;;6.70;99.90;;;;;;5074495;28;20457;-51
2022/02/27 12:53:11;;;;;;;21.20;17.03;;;6.60;99.90;;;;;;5074296;28;20405;-51
2022/02/27 12:55:41;;;;;;;26.53;18.23;;;;;;;;;;5074451;28;20428;-51
2022/02/27 12:58:11;;;;;;;25.77;16.60;;;;;;;;;;5074136;28;20489;-53
2022/02/27 13:00:40;;;;;;;26.67;17.80;;;;;;;;;;5073759;28;20438;-51
2022/02/27 13:03:08;;;;;;;23.77;16.33;;;7.10;99.90;;;;;;5074458;28;20432;-51
2022/02/27 13:05:44;;;;;;;22.73;15.50;;;7.00;99.90;;;;;;5074472;28;20526;-52
2022/02/27 13:08:12;;;;;;;22.67;16.83;;;7.10;99.90;;;;;;5074241;28;20524;-51
2022/02/27 13:10:40;;;;;;;24.10;17.43;;;7.10;99.90;;;;;;5073659;28;20427;-51
2022/02/27 13:13:12;;;;;;;23.00;16.20;;;;;;;;;;5073620;28;20895;-52
2022/02/27 13:15:39;;;;;;;23.77;17.20;;;;;;;;;;5073449;28;20877;-51